sensor_id;sensor_type;location;lat;lon;timestamp;P1;durP1;ratioP1;P2;durP2;ratioP2
27213;SDS011;14723;55.814;37.460;2023-02-15T00:02:34;4.55;;;1.20;;
27213;SDS011;14723;55.814;37.460;2023-02-15T00:05:39;5.57;;;1.20;;
27213;SDS011;14723;55.814;37.460;2023-02-15T00:08:47;2.85;;;1.10;;
27213;SDS011;14723;55.814;37.460;2023-02-15T00:11:52;2.95;;;1.13;;
27213;SDS011;14723;55.814;37.460;2023-02-15T00:14:58;4.40;;;1.23;;
27213;SDS011;14723;55.814;37.460;2023-02-15T00:18:05;4.20;;;1.02;;
27213;SDS011;14723;55.814;37.460;2023-02-15T00:21:10;3.83;;;1.27;;
27213;SDS011;14723;55.814;37.460;2023-02-15T00:24:18;4.50;;;1.17;;
27213;SDS011;14723;55.814;37.460;2023-02-15T00:27:24;12.32;;;1.40;;
27213;SDS011;14723;55.814;37.460;2023-02-15T00:30:31;5.40;;;1.10;;
27213;SDS011;14723;55.814;37.460;2023-02-15T00:33:36;13.20;;;1.30;;
27213;SDS011;14723;55.814;37.460;2023-02-15T00:36:43;4.07;;;1.30;;
27213;SDS011;14723;55.814;37.460;2023-02-15T00:39:51;2.58;;;0.90;;
27213;SDS011;14723;55.814;37.460;2023-02-15T00:46:03;3.70;;;1.08;;
27213;SDS011;14723;55.814;37.460;2023-02-15T00:49:09;4.55;;;1.17;;
27213;SDS011;14723;55.814;37.460;2023-02-15T00:52:14;2.08;;;0.68;;
27213;SDS011;14723;55.814;37.460;2023-02-15T00:55:22;4.45;;;0.82;;
27213;SDS011;14723;55.814;37.460;2023-02-15T00:58:27;5.05;;;1.08;;
27213;SDS011;14723;55.814;37.460;2023-02-15T01:01:33;2.05;;;0.80;;
27213;SDS011;14723;55.814;37.460;2023-02-15T01:04:39;4.10;;;1.38;;
27213;SDS011;14723;55.814;37.460;2023-02-15T01:07:44;5.93;;;1.45;;
27213;SDS011;14723;55.814;37.460;2023-02-15T01:10:52;4.30;;;0.93;;
27213;SDS011;14723;55.814;37.460;2023-02-15T01:13:58;3.58;;;0.88;;
27213;SDS011;14723;55.814;37.460;2023-02-15T01:17:05;4.10;;;0.73;;
27213;SDS011;14723;55.814;37.460;2023-02-15T01:20:11;5.22;;;1.02;;
27213;SDS011;14723;55.814;37.460;2023-02-15T01:23:17;3.78;;;1.00;;
27213;SDS011;14723;55.814;37.460;2023-02-15T01:26:25;4.78;;;0.90;;
27213;SDS011;14723;55.814;37.460;2023-02-15T01:29:30;4.57;;;1.20;;
27213;SDS011;14723;55.814;37.460;2023-02-15T01:32:36;4.95;;;1.30;;
27213;SDS011;14723;55.814;37.460;2023-02-15T01:35:42;4.78;;;1.00;;
27213;SDS011;14723;55.814;37.460;2023-02-15T01:38:47;4.63;;;1.23;;
27213;SDS011;14723;55.814;37.460;2023-02-15T01:41:55;2.53;;;1.23;;
27213;SDS011;14723;55.814;37.460;2023-02-15T01:45:02;4.72;;;1.27;;
27213;SDS011;14723;55.814;37.460;2023-02-15T01:48:13;6.28;;;1.45;;
27213;SDS011;14723;55.814;37.460;2023-02-15T01:51:24;2.58;;;0.98;;
27213;SDS011;14723;55.814;37.460;2023-02-15T01:54:32;4.97;;;0.95;;
27213;SDS011;14723;55.814;37.460;2023-02-15T01:57:42;7.20;;;1.20;;
27213;SDS011;14723;55.814;37.460;2023-02-15T02:00:48;5.30;;;1.35;;
27213;SDS011;14723;55.814;37.460;2023-02-15T02:03:56;2.67;;;1.00;;
27213;SDS011;14723;55.814;37.460;2023-02-15T02:07:04;4.90;;;0.90;;
27213;SDS011;14723;55.814;37.460;2023-02-15T02:10:13;4.22;;;1.10;;
27213;SDS011;14723;55.814;37.460;2023-02-15T02:13:21;7.80;;;1.30;;
27213;SDS011;14723;55.814;37.460;2023-02-15T02:20:04;3.10;;;0.82;;
27213;SDS011;14723;55.814;37.460;2023-02-15T02:33:34;6.75;;;1.33;;
27213;SDS011;14723;55.814;37.460;2023-02-15T02:36:46;3.80;;;0.80;;
27213;SDS011;14723;55.814;37.460;2023-02-15T02:39:55;4.32;;;0.90;;
27213;SDS011;14723;55.814;37.460;2023-02-15T02:43:05;9.02;;;1.48;;
27213;SDS011;14723;55.814;37.460;2023-02-15T02:46:13;3.22;;;1.35;;
27213;SDS011;14723;55.814;37.460;2023-02-15T02:49:34;6.40;;;1.33;;
27213;SDS011;14723;55.814;37.460;2023-02-15T02:52:41;6.47;;;1.30;;
27213;SDS011;14723;55.814;37.460;2023-02-15T02:55:48;4.22;;;1.98;;
27213;SDS011;14723;55.814;37.460;2023-02-15T02:58:56;3.60;;;1.40;;
27213;SDS011;14723;55.814;37.460;2023-02-15T03:02:04;5.50;;;1.58;;
27213;SDS011;14723;55.814;37.460;2023-02-15T03:05:18;8.55;;;2.03;;
27213;SDS011;14723;55.814;37.460;2023-02-15T03:08:26;9.70;;;1.73;;
27213;SDS011;14723;55.814;37.460;2023-02-15T03:11:34;3.33;;;1.27;;
27213;SDS011;14723;55.814;37.460;2023-02-15T03:14:39;3.08;;;1.15;;
27213;SDS011;14723;55.814;37.460;2023-02-15T03:17:46;5.70;;;1.95;;
27213;SDS011;14723;55.814;37.460;2023-02-15T03:20:55;5.22;;;3.00;;
27213;SDS011;14723;55.814;37.460;2023-02-15T03:24:04;3.28;;;0.90;;
27213;SDS011;14723;55.814;37.460;2023-02-15T03:27:11;6.05;;;2.28;;
27213;SDS011;14723;55.814;37.460;2023-02-15T03:30:20;11.52;;;1.52;;
27213;SDS011;14723;55.814;37.460;2023-02-15T03:33:29;3.45;;;1.05;;
27213;SDS011;14723;55.814;37.460;2023-02-15T03:36:39;8.02;;;1.10;;
27213;SDS011;14723;55.814;37.460;2023-02-15T03:39:48;3.10;;;1.25;;
27213;SDS011;14723;55.814;37.460;2023-02-15T03:42:58;5.32;;;1.13;;
27213;SDS011;14723;55.814;37.460;2023-02-15T03:46:06;4.45;;;1.30;;
27213;SDS011;14723;55.814;37.460;2023-02-15T03:49:14;4.72;;;1.33;;
27213;SDS011;14723;55.814;37.460;2023-02-15T03:55:28;5.07;;;1.05;;
27213;SDS011;14723;55.814;37.460;2023-02-15T04:01:54;5.15;;;0.88;;
27213;SDS011;14723;55.814;37.460;2023-02-15T04:05:04;2.90;;;1.10;;
27213;SDS011;14723;55.814;37.460;2023-02-15T04:08:10;6.45;;;1.20;;
27213;SDS011;14723;55.814;37.460;2023-02-15T04:11:19;4.32;;;1.38;;
27213;SDS011;14723;55.814;37.460;2023-02-15T04:14:21;4.32;;;1.17;;
27213;SDS011;14723;55.814;37.460;2023-02-15T04:17:39;8.63;;;1.55;;
27213;SDS011;14723;55.814;37.460;2023-02-15T04:20:44;4.95;;;1.15;;
27213;SDS011;14723;55.814;37.460;2023-02-15T04:24:02;7.43;;;1.65;;
27213;SDS011;14723;55.814;37.460;2023-02-15T04:27:22;11.07;;;1.63;;
27213;SDS011;14723;55.814;37.460;2023-02-15T04:30:27;6.57;;;1.60;;
27213;SDS011;14723;55.814;37.460;2023-02-15T04:33:34;7.30;;;1.30;;
27213;SDS011;14723;55.814;37.460;2023-02-15T04:36:41;4.40;;;1.35;;
27213;SDS011;14723;55.814;37.460;2023-02-15T04:39:46;5.35;;;1.35;;
27213;SDS011;14723;55.814;37.460;2023-02-15T04:42:54;5.97;;;1.42;;
27213;SDS011;14723;55.814;37.460;2023-02-15T04:46:00;9.70;;;1.13;;
27213;SDS011;14723;55.814;37.460;2023-02-15T04:49:07;3.75;;;1.30;;
27213;SDS011;14723;55.814;37.460;2023-02-15T04:52:13;4.88;;;1.60;;
27213;SDS011;14723;55.814;37.460;2023-02-15T04:55:19;3.22;;;1.20;;
27213;SDS011;14723;55.814;37.460;2023-02-15T04:58:27;5.30;;;1.50;;
27213;SDS011;14723;55.814;37.460;2023-02-15T05:01:33;2.75;;;1.27;;
27213;SDS011;14723;55.814;37.460;2023-02-15T05:04:38;11.65;;;2.20;;
27213;SDS011;14723;55.814;37.460;2023-02-15T05:07:44;5.07;;;1.40;;
27213;SDS011;14723;55.814;37.460;2023-02-15T05:10:49;8.85;;;1.65;;
27213;SDS011;14723;55.814;37.460;2023-02-15T05:13:57;3.30;;;1.30;;
27213;SDS011;14723;55.814;37.460;2023-02-15T05:17:03;10.68;;;1.77;;
27213;SDS011;14723;55.814;37.460;2023-02-15T05:20:09;4.15;;;1.48;;
27213;SDS011;14723;55.814;37.460;2023-02-15T05:23:15;7.55;;;1.60;;
27213;SDS011;14723;55.814;37.460;2023-02-15T05:26:21;3.97;;;1.20;;
27213;SDS011;14723;55.814;37.460;2023-02-15T05:29:42;3.08;;;1.40;;
27213;SDS011;14723;55.814;37.460;2023-02-15T05:35:53;6.65;;;2.35;;
27213;SDS011;14723;55.814;37.460;2023-02-15T05:38:58;7.50;;;1.92;;
27213;SDS011;14723;55.814;37.460;2023-02-15T05:42:06;5.03;;;2.05;;
27213;SDS011;14723;55.814;37.460;2023-02-15T05:45:13;9.90;;;1.77;;
27213;SDS011;14723;55.814;37.460;2023-02-15T05:48:20;9.93;;;2.88;;
27213;SDS011;14723;55.814;37.460;2023-02-15T05:51:26;5.97;;;2.25;;
27213;SDS011;14723;55.814;37.460;2023-02-15T05:54:31;7.32;;;2.45;;
27213;SDS011;14723;55.814;37.460;2023-02-15T05:57:36;7.93;;;2.70;;
27213;SDS011;14723;55.814;37.460;2023-02-15T06:00:45;8.13;;;2.83;;
27213;SDS011;14723;55.814;37.460;2023-02-15T06:03:50;8.50;;;2.95;;
27213;SDS011;14723;55.814;37.460;2023-02-15T06:06:57;9.45;;;3.08;;
27213;SDS011;14723;55.814;37.460;2023-02-15T06:10:03;8.88;;;2.60;;
27213;SDS011;14723;55.814;37.460;2023-02-15T06:13:09;6.40;;;2.70;;
27213;SDS011;14723;55.814;37.460;2023-02-15T06:16:17;9.57;;;2.65;;
27213;SDS011;14723;55.814;37.460;2023-02-15T06:19:23;7.72;;;2.92;;
27213;SDS011;14723;55.814;37.460;2023-02-15T06:22:28;6.22;;;2.95;;
27213;SDS011;14723;55.814;37.460;2023-02-15T06:25:33;9.55;;;2.78;;
27213;SDS011;14723;55.814;37.460;2023-02-15T06:28:40;11.15;;;2.97;;
27213;SDS011;14723;55.814;37.460;2023-02-15T06:31:49;8.73;;;2.55;;
27213;SDS011;14723;55.814;37.460;2023-02-15T06:38:00;5.88;;;2.28;;
27213;SDS011;14723;55.814;37.460;2023-02-15T06:41:06;6.13;;;2.40;;
27213;SDS011;14723;55.814;37.460;2023-02-15T06:44:11;6.93;;;2.35;;
27213;SDS011;14723;55.814;37.460;2023-02-15T06:47:19;5.38;;;2.28;;
27213;SDS011;14723;55.814;37.460;2023-02-15T06:53:30;8.57;;;2.55;;
27213;SDS011;14723;55.814;37.460;2023-02-15T06:56:35;6.93;;;2.60;;
27213;SDS011;14723;55.814;37.460;2023-02-15T06:59:41;6.97;;;2.85;;
27213;SDS011;14723;55.814;37.460;2023-02-15T07:02:49;6.25;;;2.75;;
27213;SDS011;14723;55.814;37.460;2023-02-15T07:05:58;6.65;;;2.10;;
27213;SDS011;14723;55.814;37.460;2023-02-15T07:09:04;5.60;;;2.00;;
27213;SDS011;14723;55.814;37.460;2023-02-15T07:12:09;6.22;;;2.20;;
27213;SDS011;14723;55.814;37.460;2023-02-15T07:15:27;6.32;;;2.10;;
27213;SDS011;14723;55.814;37.460;2023-02-15T07:18:35;5.13;;;2.20;;
27213;SDS011;14723;55.814;37.460;2023-02-15T07:21:41;5.43;;;2.42;;
27213;SDS011;14723;55.814;37.460;2023-02-15T07:24:47;4.70;;;2.38;;
27213;SDS011;14723;55.814;37.460;2023-02-15T07:27:56;8.02;;;2.70;;
27213;SDS011;14723;55.814;37.460;2023-02-15T07:31:02;8.60;;;2.72;;
27213;SDS011;14723;55.814;37.460;2023-02-15T07:34:10;6.22;;;2.33;;
27213;SDS011;14723;55.814;37.460;2023-02-15T07:37:15;8.80;;;2.97;;
27213;SDS011;14723;55.814;37.460;2023-02-15T07:40:21;6.43;;;2.30;;
27213;SDS011;14723;55.814;37.460;2023-02-15T07:43:27;10.55;;;2.15;;
27213;SDS011;14723;55.814;37.460;2023-02-15T07:46:32;6.40;;;2.50;;
27213;SDS011;14723;55.814;37.460;2023-02-15T07:49:40;8.02;;;2.60;;
27213;SDS011;14723;55.814;37.460;2023-02-15T07:52:46;12.85;;;3.30;;
27213;SDS011;14723;55.814;37.460;2023-02-15T07:55:51;8.18;;;2.30;;
27213;SDS011;14723;55.814;37.460;2023-02-15T07:58:57;8.23;;;2.88;;
27213;SDS011;14723;55.814;37.460;2023-02-15T08:02:05;4.50;;;2.22;;
27213;SDS011;14723;55.814;37.460;2023-02-15T08:05:13;5.60;;;2.33;;
27213;SDS011;14723;55.814;37.460;2023-02-15T08:08:20;6.03;;;2.47;;
27213;SDS011;14723;55.814;37.460;2023-02-15T08:11:35;4.80;;;2.55;;
27213;SDS011;14723;55.814;37.460;2023-02-15T08:14:41;8.45;;;2.50;;
27213;SDS011;14723;55.814;37.460;2023-02-15T08:17:47;7.00;;;2.17;;
27213;SDS011;14723;55.814;37.460;2023-02-15T08:20:56;6.68;;;2.45;;
27213;SDS011;14723;55.814;37.460;2023-02-15T08:24:01;5.80;;;2.35;;
27213;SDS011;14723;55.814;37.460;2023-02-15T08:27:08;4.97;;;1.88;;
27213;SDS011;14723;55.814;37.460;2023-02-15T08:30:14;3.92;;;1.80;;
27213;SDS011;14723;55.814;37.460;2023-02-15T08:33:20;6.43;;;2.08;;
27213;SDS011;14723;55.814;37.460;2023-02-15T08:36:28;8.77;;;2.22;;
27213;SDS011;14723;55.814;37.460;2023-02-15T08:39:34;3.88;;;2.63;;
27213;SDS011;14723;55.814;37.460;2023-02-15T08:42:39;6.35;;;2.33;;
27213;SDS011;14723;55.814;37.460;2023-02-15T08:45:45;8.88;;;2.03;;
27213;SDS011;14723;55.814;37.460;2023-02-15T08:48:51;4.38;;;2.05;;
27213;SDS011;14723;55.814;37.460;2023-02-15T08:51:59;5.50;;;1.90;;
27213;SDS011;14723;55.814;37.460;2023-02-15T08:55:05;4.95;;;1.98;;
27213;SDS011;14723;55.814;37.460;2023-02-15T08:58:10;5.03;;;1.98;;
27213;SDS011;14723;55.814;37.460;2023-02-15T09:01:16;5.32;;;2.20;;
27213;SDS011;14723;55.814;37.460;2023-02-15T09:04:22;7.78;;;1.98;;
27213;SDS011;14723;55.814;37.460;2023-02-15T09:07:30;5.53;;;2.30;;
27213;SDS011;14723;55.814;37.460;2023-02-15T09:10:36;4.28;;;2.58;;
27213;SDS011;14723;55.814;37.460;2023-02-15T09:13:41;11.40;;;3.15;;
27213;SDS011;14723;55.814;37.460;2023-02-15T09:16:48;7.18;;;2.25;;
27213;SDS011;14723;55.814;37.460;2023-02-15T09:19:54;5.15;;;2.03;;
27213;SDS011;14723;55.814;37.460;2023-02-15T09:23:02;8.95;;;2.40;;
27213;SDS011;14723;55.814;37.460;2023-02-15T09:26:09;5.35;;;1.88;;
27213;SDS011;14723;55.814;37.460;2023-02-15T09:29:15;4.45;;;2.15;;
27213;SDS011;14723;55.814;37.460;2023-02-15T09:32:21;6.32;;;2.28;;
27213;SDS011;14723;55.814;37.460;2023-02-15T09:35:26;6.15;;;2.50;;
27213;SDS011;14723;55.814;37.460;2023-02-15T09:38:35;8.40;;;2.05;;
27213;SDS011;14723;55.814;37.460;2023-02-15T09:41:48;4.20;;;1.90;;
27213;SDS011;14723;55.814;37.460;2023-02-15T09:48:30;15.88;;;2.45;;
27213;SDS011;14723;55.814;37.460;2023-02-15T09:55:12;4.18;;;2.08;;
27213;SDS011;14723;55.814;37.460;2023-02-15T09:58:23;4.80;;;2.35;;
27213;SDS011;14723;55.814;37.460;2023-02-15T10:01:31;3.50;;;2.05;;
27213;SDS011;14723;55.814;37.460;2023-02-15T10:04:42;6.53;;;2.33;;
27213;SDS011;14723;55.814;37.460;2023-02-15T10:08:01;4.47;;;2.03;;
27213;SDS011;14723;55.814;37.460;2023-02-15T10:11:14;4.15;;;2.28;;
27213;SDS011;14723;55.814;37.460;2023-02-15T10:14:36;6.57;;;2.08;;
27213;SDS011;14723;55.814;37.460;2023-02-15T10:17:48;4.45;;;1.90;;
27213;SDS011;14723;55.814;37.460;2023-02-15T10:20:57;6.68;;;2.42;;
27213;SDS011;14723;55.814;37.460;2023-02-15T10:24:17;5.75;;;1.90;;
27213;SDS011;14723;55.814;37.460;2023-02-15T10:27:28;4.40;;;2.60;;
27213;SDS011;14723;55.814;37.460;2023-02-15T10:30:38;11.07;;;2.13;;
27213;SDS011;14723;55.814;37.460;2023-02-15T10:33:45;2.67;;;1.60;;
27213;SDS011;14723;55.814;37.460;2023-02-15T10:37:00;6.45;;;1.67;;
27213;SDS011;14723;55.814;37.460;2023-02-15T10:40:13;5.50;;;2.20;;
27213;SDS011;14723;55.814;37.460;2023-02-15T10:43:25;4.82;;;1.90;;
27213;SDS011;14723;55.814;37.460;2023-02-15T10:46:45;8.20;;;2.58;;
27213;SDS011;14723;55.814;37.460;2023-02-15T10:50:06;9.65;;;2.15;;
27213;SDS011;14723;55.814;37.460;2023-02-15T10:53:23;4.25;;;2.10;;
27213;SDS011;14723;55.814;37.460;2023-02-15T10:56:32;6.30;;;2.58;;
27213;SDS011;14723;55.814;37.460;2023-02-15T10:59:45;6.25;;;1.90;;
27213;SDS011;14723;55.814;37.460;2023-02-15T11:03:00;3.33;;;2.22;;
27213;SDS011;14723;55.814;37.460;2023-02-15T11:06:08;3.38;;;1.38;;
27213;SDS011;14723;55.814;37.460;2023-02-15T11:09:14;6.25;;;1.65;;
27213;SDS011;14723;55.814;37.460;2023-02-15T11:15:32;2.95;;;1.20;;
27213;SDS011;14723;55.814;37.460;2023-02-15T11:18:40;4.63;;;1.55;;
27213;SDS011;14723;55.814;37.460;2023-02-15T11:21:48;3.47;;;1.50;;
27213;SDS011;14723;55.814;37.460;2023-02-15T11:24:54;3.58;;;1.27;;
27213;SDS011;14723;55.814;37.460;2023-02-15T11:27:59;3.10;;;1.88;;
27213;SDS011;14723;55.814;37.460;2023-02-15T11:31:15;4.07;;;1.40;;
27213;SDS011;14723;55.814;37.460;2023-02-15T11:34:23;2.63;;;1.40;;
27213;SDS011;14723;55.814;37.460;2023-02-15T11:37:33;2.30;;;1.08;;
27213;SDS011;14723;55.814;37.460;2023-02-15T11:40:41;6.05;;;1.50;;
27213;SDS011;14723;55.814;37.460;2023-02-15T11:43:50;2.78;;;1.45;;
27213;SDS011;14723;55.814;37.460;2023-02-15T11:47:01;1.95;;;1.20;;
27213;SDS011;14723;55.814;37.460;2023-02-15T11:50:10;2.92;;;1.63;;
27213;SDS011;14723;55.814;37.460;2023-02-15T11:53:17;4.43;;;1.40;;
27213;SDS011;14723;55.814;37.460;2023-02-15T11:56:23;5.03;;;1.92;;
27213;SDS011;14723;55.814;37.460;2023-02-15T11:59:30;5.93;;;1.60;;
27213;SDS011;14723;55.814;37.460;2023-02-15T12:05:47;3.42;;;1.20;;
27213;SDS011;14723;55.814;37.460;2023-02-15T12:08:56;6.63;;;1.70;;
27213;SDS011;14723;55.814;37.460;2023-02-15T12:15:30;2.15;;;1.23;;
27213;SDS011;14723;55.814;37.460;2023-02-15T12:18:37;4.50;;;1.27;;
27213;SDS011;14723;55.814;37.460;2023-02-15T12:21:48;3.45;;;1.25;;
27213;SDS011;14723;55.814;37.460;2023-02-15T12:24:55;2.20;;;0.80;;
27213;SDS011;14723;55.814;37.460;2023-02-15T12:28:03;1.77;;;0.82;;
27213;SDS011;14723;55.814;37.460;2023-02-15T12:31:17;1.92;;;1.00;;
27213;SDS011;14723;55.814;37.460;2023-02-15T12:34:25;3.08;;;1.02;;
27213;SDS011;14723;55.814;37.460;2023-02-15T12:37:34;5.43;;;1.50;;
27213;SDS011;14723;55.814;37.460;2023-02-15T12:43:45;2.88;;;1.02;;
27213;SDS011;14723;55.814;37.460;2023-02-15T12:46:58;2.05;;;1.05;;
27213;SDS011;14723;55.814;37.460;2023-02-15T12:50:05;1.60;;;1.10;;
27213;SDS011;14723;55.814;37.460;2023-02-15T12:53:22;2.83;;;1.00;;
27213;SDS011;14723;55.814;37.460;2023-02-15T12:56:30;2.25;;;1.00;;
27213;SDS011;14723;55.814;37.460;2023-02-15T12:59:36;2.45;;;0.98;;
27213;SDS011;14723;55.814;37.460;2023-02-15T13:02:46;2.50;;;1.50;;
27213;SDS011;14723;55.814;37.460;2023-02-15T13:05:53;4.43;;;1.30;;
27213;SDS011;14723;55.814;37.460;2023-02-15T13:09:06;6.38;;;1.75;;
27213;SDS011;14723;55.814;37.460;2023-02-15T13:12:16;3.05;;;1.35;;
27213;SDS011;14723;55.814;37.460;2023-02-15T13:15:26;2.58;;;1.48;;
27213;SDS011;14723;55.814;37.460;2023-02-15T13:18:33;3.72;;;1.38;;
27213;SDS011;14723;55.814;37.460;2023-02-15T13:21:39;3.50;;;1.60;;
27213;SDS011;14723;55.814;37.460;2023-02-15T13:24:50;2.25;;;1.17;;
27213;SDS011;14723;55.814;37.460;2023-02-15T13:27:57;6.60;;;1.67;;
27213;SDS011;14723;55.814;37.460;2023-02-15T13:31:05;1.80;;;1.20;;
27213;SDS011;14723;55.814;37.460;2023-02-15T13:34:17;2.85;;;1.00;;
27213;SDS011;14723;55.814;37.460;2023-02-15T13:37:33;1.98;;;1.20;;
27213;SDS011;14723;55.814;37.460;2023-02-15T13:40:44;3.67;;;1.20;;
27213;SDS011;14723;55.814;37.460;2023-02-15T13:43:54;3.20;;;1.30;;
27213;SDS011;14723;55.814;37.460;2023-02-15T13:47:08;4.15;;;1.60;;
27213;SDS011;14723;55.814;37.460;2023-02-15T13:50:19;3.88;;;1.23;;
27213;SDS011;14723;55.814;37.460;2023-02-15T13:53:31;4.57;;;1.40;;
27213;SDS011;14723;55.814;37.460;2023-02-15T13:56:43;2.83;;;1.35;;
27213;SDS011;14723;55.814;37.460;2023-02-15T13:59:54;2.92;;;1.55;;
27213;SDS011;14723;55.814;37.460;2023-02-15T14:03:14;2.80;;;1.67;;
27213;SDS011;14723;55.814;37.460;2023-02-15T14:06:26;4.28;;;1.02;;
27213;SDS011;14723;55.814;37.460;2023-02-15T14:09:39;2.95;;;1.05;;
27213;SDS011;14723;55.814;37.460;2023-02-15T14:12:52;2.92;;;1.15;;
27213;SDS011;14723;55.814;37.460;2023-02-15T14:16:03;5.78;;;1.52;;
27213;SDS011;14723;55.814;37.460;2023-02-15T14:19:13;1.83;;;0.77;;
27213;SDS011;14723;55.814;37.460;2023-02-15T14:22:24;4.63;;;1.10;;
27213;SDS011;14723;55.814;37.460;2023-02-15T14:25:33;2.58;;;0.80;;
27213;SDS011;14723;55.814;37.460;2023-02-15T14:28:43;2.10;;;0.93;;
27213;SDS011;14723;55.814;37.460;2023-02-15T14:31:52;1.15;;;0.95;;
27213;SDS011;14723;55.814;37.460;2023-02-15T14:38:07;3.50;;;1.20;;
27213;SDS011;14723;55.814;37.460;2023-02-15T14:41:17;4.78;;;1.30;;
27213;SDS011;14723;55.814;37.460;2023-02-15T14:44:29;4.35;;;1.80;;
27213;SDS011;14723;55.814;37.460;2023-02-15T14:47:38;3.53;;;1.60;;
27213;SDS011;14723;55.814;37.460;2023-02-15T14:50:46;1.85;;;1.00;;
27213;SDS011;14723;55.814;37.460;2023-02-15T14:53:51;6.85;;;1.30;;
27213;SDS011;14723;55.814;37.460;2023-02-15T15:00:33;3.58;;;1.20;;
27213;SDS011;14723;55.814;37.460;2023-02-15T15:03:43;2.28;;;1.30;;
27213;SDS011;14723;55.814;37.460;2023-02-15T15:06:57;4.75;;;1.77;;
27213;SDS011;14723;55.814;37.460;2023-02-15T15:10:05;5.70;;;1.98;;
27213;SDS011;14723;55.814;37.460;2023-02-15T15:16:52;2.25;;;1.00;;
27213;SDS011;14723;55.814;37.460;2023-02-15T15:19:58;4.47;;;1.65;;
27213;SDS011;14723;55.814;37.460;2023-02-15T15:26:27;4.03;;;1.40;;
27213;SDS011;14723;55.814;37.460;2023-02-15T15:29:38;2.00;;;1.23;;
27213;SDS011;14723;55.814;37.460;2023-02-15T15:32:48;3.28;;;1.25;;
27213;SDS011;14723;55.814;37.460;2023-02-15T15:36:06;4.45;;;1.08;;
27213;SDS011;14723;55.814;37.460;2023-02-15T15:39:20;3.55;;;1.17;;
27213;SDS011;14723;55.814;37.460;2023-02-15T15:42:32;2.25;;;0.70;;
27213;SDS011;14723;55.814;37.460;2023-02-15T15:45:49;3.63;;;0.90;;
27213;SDS011;14723;55.814;37.460;2023-02-15T15:49:02;1.92;;;0.90;;
27213;SDS011;14723;55.814;37.460;2023-02-15T15:52:13;3.08;;;1.02;;
27213;SDS011;14723;55.814;37.460;2023-02-15T15:55:20;1.80;;;1.25;;
27213;SDS011;14723;55.814;37.460;2023-02-15T15:58:26;1.77;;;1.08;;
27213;SDS011;14723;55.814;37.460;2023-02-15T16:01:34;4.03;;;1.20;;
27213;SDS011;14723;55.814;37.460;2023-02-15T16:04:44;2.83;;;0.90;;
27213;SDS011;14723;55.814;37.460;2023-02-15T16:07:50;1.80;;;0.70;;
27213;SDS011;14723;55.814;37.460;2023-02-15T16:10:56;2.75;;;1.30;;
27213;SDS011;14723;55.814;37.460;2023-02-15T16:14:02;1.77;;;1.05;;
27213;SDS011;14723;55.814;37.460;2023-02-15T16:17:12;1.33;;;0.80;;
27213;SDS011;14723;55.814;37.460;2023-02-15T16:20:22;3.50;;;0.90;;
27213;SDS011;14723;55.814;37.460;2023-02-15T16:26:52;2.00;;;0.60;;
27213;SDS011;14723;55.814;37.460;2023-02-15T16:30:13;1.42;;;0.88;;
27213;SDS011;14723;55.814;37.460;2023-02-15T16:33:21;1.02;;;0.63;;
27213;SDS011;14723;55.814;37.460;2023-02-15T16:36:29;2.47;;;0.68;;
27213;SDS011;14723;55.814;37.460;2023-02-15T16:39:35;1.83;;;0.90;;
27213;SDS011;14723;55.814;37.460;2023-02-15T16:42:45;0.85;;;0.80;;
27213;SDS011;14723;55.814;37.460;2023-02-15T16:45:51;2.47;;;0.63;;
27213;SDS011;14723;55.814;37.460;2023-02-15T16:48:59;1.02;;;0.52;;
27213;SDS011;14723;55.814;37.460;2023-02-15T16:52:10;1.95;;;0.60;;
27213;SDS011;14723;55.814;37.460;2023-02-15T16:55:20;2.88;;;0.85;;
27213;SDS011;14723;55.814;37.460;2023-02-15T16:58:27;1.47;;;0.80;;
27213;SDS011;14723;55.814;37.460;2023-02-15T17:01:33;1.27;;;0.65;;
27213;SDS011;14723;55.814;37.460;2023-02-15T17:04:39;1.15;;;0.70;;
27213;SDS011;14723;55.814;37.460;2023-02-15T17:07:52;2.35;;;0.80;;
27213;SDS011;14723;55.814;37.460;2023-02-15T17:11:13;1.98;;;0.90;;
27213;SDS011;14723;55.814;37.460;2023-02-15T17:14:20;1.45;;;0.80;;
27213;SDS011;14723;55.814;37.460;2023-02-15T17:17:25;0.80;;;0.60;;
27213;SDS011;14723;55.814;37.460;2023-02-15T17:20:31;1.70;;;0.80;;
27213;SDS011;14723;55.814;37.460;2023-02-15T17:23:41;2.15;;;0.60;;
27213;SDS011;14723;55.814;37.460;2023-02-15T17:26:49;1.58;;;0.57;;
27213;SDS011;14723;55.814;37.460;2023-02-15T17:29:55;1.33;;;0.90;;
27213;SDS011;14723;55.814;37.460;2023-02-15T17:33:04;0.82;;;0.70;;
27213;SDS011;14723;55.814;37.460;2023-02-15T17:36:24;2.13;;;1.08;;
27213;SDS011;14723;55.814;37.460;2023-02-15T17:39:34;2.25;;;0.90;;
27213;SDS011;14723;55.814;37.460;2023-02-15T17:42:39;2.72;;;0.80;;
27213;SDS011;14723;55.814;37.460;2023-02-15T17:45:47;2.67;;;1.00;;
27213;SDS011;14723;55.814;37.460;2023-02-15T17:48:53;2.70;;;1.00;;
27213;SDS011;14723;55.814;37.460;2023-02-15T17:51:59;1.67;;;0.90;;
27213;SDS011;14723;55.814;37.460;2023-02-15T17:55:12;1.65;;;1.00;;
27213;SDS011;14723;55.814;37.460;2023-02-15T17:58:30;3.50;;;1.17;;
27213;SDS011;14723;55.814;37.460;2023-02-15T18:01:36;1.13;;;0.70;;
27213;SDS011;14723;55.814;37.460;2023-02-15T18:04:55;4.18;;;0.98;;
27213;SDS011;14723;55.814;37.460;2023-02-15T18:08:13;2.28;;;0.70;;
27213;SDS011;14723;55.814;37.460;2023-02-15T18:11:34;1.33;;;0.70;;
27213;SDS011;14723;55.814;37.460;2023-02-15T18:14:41;1.58;;;0.55;;
27213;SDS011;14723;55.814;37.460;2023-02-15T18:17:47;1.17;;;0.80;;
27213;SDS011;14723;55.814;37.460;2023-02-15T18:20:52;2.10;;;0.70;;
27213;SDS011;14723;55.814;37.460;2023-02-15T18:23:58;2.22;;;0.88;;
27213;SDS011;14723;55.814;37.460;2023-02-15T18:27:06;1.10;;;0.75;;
27213;SDS011;14723;55.814;37.460;2023-02-15T18:30:13;3.45;;;1.77;;
27213;SDS011;14723;55.814;37.460;2023-02-15T18:33:23;2.33;;;0.85;;
27213;SDS011;14723;55.814;37.460;2023-02-15T18:36:30;1.65;;;0.60;;
27213;SDS011;14723;55.814;37.460;2023-02-15T18:39:37;0.80;;;0.60;;
27213;SDS011;14723;55.814;37.460;2023-02-15T18:42:47;1.45;;;0.75;;
27213;SDS011;14723;55.814;37.460;2023-02-15T18:45:53;1.17;;;0.80;;
27213;SDS011;14723;55.814;37.460;2023-02-15T18:48:58;1.58;;;0.98;;
27213;SDS011;14723;55.814;37.460;2023-02-15T18:52:03;0.85;;;0.70;;
27213;SDS011;14723;55.814;37.460;2023-02-15T18:55:13;0.70;;;0.60;;
27213;SDS011;14723;55.814;37.460;2023-02-15T18:58:22;2.42;;;1.60;;
27213;SDS011;14723;55.814;37.460;2023-02-15T19:01:29;1.42;;;0.70;;
27213;SDS011;14723;55.814;37.460;2023-02-15T19:04:34;4.97;;;2.10;;
27213;SDS011;14723;55.814;37.460;2023-02-15T19:07:40;1.67;;;0.75;;
27213;SDS011;14723;55.814;37.460;2023-02-15T19:10:49;2.65;;;0.85;;
27213;SDS011;14723;55.814;37.460;2023-02-15T19:13:57;2.90;;;1.08;;
27213;SDS011;14723;55.814;37.460;2023-02-15T19:20:09;0.98;;;0.65;;
27213;SDS011;14723;55.814;37.460;2023-02-15T19:23:20;1.60;;;0.90;;
27213;SDS011;14723;55.814;37.460;2023-02-15T19:26:26;1.95;;;1.08;;
27213;SDS011;14723;55.814;37.460;2023-02-15T19:29:49;2.15;;;1.10;;
27213;SDS011;14723;55.814;37.460;2023-02-15T19:35:59;1.73;;;0.70;;
27213;SDS011;14723;55.814;37.460;2023-02-15T19:39:05;4.05;;;0.98;;
27213;SDS011;14723;55.814;37.460;2023-02-15T19:42:14;1.58;;;1.02;;
27213;SDS011;14723;55.814;37.460;2023-02-15T19:45:25;1.08;;;0.77;;
27213;SDS011;14723;55.814;37.460;2023-02-15T19:48:31;1.60;;;1.02;;
27213;SDS011;14723;55.814;37.460;2023-02-15T19:51:36;2.10;;;0.88;;
27213;SDS011;14723;55.814;37.460;2023-02-15T19:54:42;1.13;;;0.65;;